Flight Track Log - Related Links

Times and Time Zones

All times are in EDT time to prevent confusion due to time zone crossing. See the UAL1635 flight status page for this flight to view local times or setup timezone preferences in your user account.

Time Position Orientation Groundspeed Altitude Reporting Facility
EDT Latitude Longitude Course Direction KTS MPH feet Rate Location/Type
Tue 07:25:17 PM 39.8771 -104.6180 360° North 179 206 5,900  Level FlightAware ADS-B
Tue 07:25:30 PM 39.8769 -104.6030 91° East 187 215 6,400 2,100 Climbing FlightAware ADS-B
Tue 07:25:37 PM 39.8766 -104.5960 93° East 196 226 6,600 1,846 Climbing FlightAware ADS-B
Tue 07:25:43 PM 39.8759 -104.5880 97° East 205 236 6,800 2,400 Climbing FlightAware ADS-B
Tue 07:25:47 PM 39.8751 -104.5830 102° East 208 239 7,000 2,250 Climbing FlightAware ADS-B
Tue 07:25:51 PM 39.8740 -104.5790 110° East 212 244 7,100 2,571 Climbing FlightAware ADS-B
Tue 07:25:54 PM 39.8730 -104.5750 108° East 215 247 7,300 3,750 Climbing FlightAware ADS-B
Tue 07:25:59 PM 39.8707 -104.5690 117° Southeast 219 252 7,600 3,143 Climbing FlightAware ADS-B
Tue 07:26:15 PM 39.8631 -104.5490 116° Southeast 230 265 8,400 2,516 Climbing FlightAware ADS-B
Tue 07:26:30 PM 39.8561 -104.5300 116° Southeast 251 289 8,900 1,800 Climbing FlightAware ADS-B
Tue 07:26:45 PM 39.8484 -104.5070 114° Southeast 279 321 9,300 1,742 Climbing FlightAware ADS-B
Tue 07:27:01 PM 39.8400 -104.4820 114° Southeast 299 344 9,800 968 Climbing FlightAware ADS-B
Tue 07:27:16 PM 39.8314 -104.4560 113° Southeast 308 354 9,800 1,733 Level FlightAware ADS-B
Tue 07:27:46 PM 39.8136 -104.4040 114° Southeast 310 357 11,100 2,459 Climbing FlightAware ADS-B
Tue 07:28:17 PM 39.7952 -104.3500 114° Southeast 342 394 12,300 2,847 Climbing FlightAware ADS-B
Tue 07:28:45 PM 39.7760 -104.2950 114° Southeast 358 412 13,900 3,356 Climbing FlightAware ADS-B
Tue 07:29:16 PM 39.7550 -104.2350 114° Southeast 367 422 15,600 3,194 Climbing FlightAware ADS-B
Tue 07:29:47 PM 39.7327 -104.1710 114° Southeast 375 432 17,200 3,097 Climbing FlightAware ADS-B
Tue 07:30:18 PM 39.7103 -104.1070 114° Southeast 383 441 18,800 2,951 Climbing FlightAware ADS-B
Tue 07:30:48 PM 39.6878 -104.0430 115° Southeast 392 451 20,200 2,852 Climbing FlightAware ADS-B
Tue 07:31:19 PM 39.6645 -103.9780 115° Southeast 399 459 21,700 2,791 Climbing FlightAware ADS-B
Tue 07:31:31 PM 39.6544 -103.9500 115° Southeast 402 463 22,200 1,909 Climbing FlightAware ADS-B
Tue 07:32:03 PM 39.6265 -103.8820 118° Southeast 413 475 23,100 1,932 Climbing FlightAware ADS-B
Tue 07:32:30 PM 39.6018 -103.8210 118° Southeast 424 488 24,100 2,211 Climbing FlightAware ADS-B
Tue 07:32:41 PM 39.5930 -103.7960 115° Southeast 428 493 24,500 2,182 Climbing FlightAware ADS-B
Tue 07:33:14 PM 39.5713 -103.7170 110° East 434 499 25,700 2,156 Climbing FlightAware ADS-B
Tue 07:33:45 PM 39.5514 -103.6400 109° East 441 507 26,800 1,967 Climbing FlightAware ADS-B
Tue 07:34:15 PM 39.5316 -103.5640 109° East 449 517 27,700 1,800 Climbing FlightAware ADS-B
Tue 07:34:45 PM 39.5113 -103.4870 109° East 458 527 28,600 1,700 Climbing FlightAware ADS-B
Tue 07:35:15 PM 39.4906 -103.4080 109° East 464 534 29,400 1,700 Climbing FlightAware ADS-B
Tue 07:35:45 PM 39.4697 -103.3290 109° East 469 540 30,300 1,700 Climbing FlightAware ADS-B
Tue 07:36:15 PM 39.4480 -103.2480 109° East 476 548 31,100 1,600 Climbing FlightAware ADS-B
Tue 07:36:45 PM 39.4264 -103.1660 109° East 480 552 31,900 1,770 Climbing FlightAware ADS-B
Tue 07:37:16 PM 39.4048 -103.0850 109° East 469 540 32,900 1,082 Climbing FlightAware ADS-B
Tue 07:37:46 PM 39.3837 -103.0060 109° East 458 527 33,000 100 Climbing FlightAware ADS-B
Tue 07:38:16 PM 39.3626 -102.9280 109° East 458 527 33,000  Level FlightAware ADS-B
Tue 07:38:47 PM 39.3412 -102.8490 109° East 456 525 33,000  Level FlightAware ADS-B
Tue 07:39:18 PM 39.3201 -102.7710 109° East 455 524 33,000  Level FlightAware ADS-B
Tue 07:39:48 PM 39.2990 -102.6930 109° East 453 521 33,000  Level FlightAware ADS-B
Tue 07:40:18 PM 39.2779 -102.6150 109° East 454 522 33,000  Level FlightAware ADS-B
Tue 07:40:49 PM 39.2569 -102.5390 110° East 452 520 33,000  Level FlightAware ADS-B
Tue 07:41:19 PM 39.2360 -102.4630 110° East 451 519 33,000  Level FlightAware ADS-B
Tue 07:41:49 PM 39.2151 -102.3860 109° East 450 518 33,000  Level FlightAware ADS-B
Tue 07:42:19 PM 39.1941 -102.3100 110° East 450 518 33,000  Level FlightAware ADS-B
Tue 07:43:00 PM 39.1663 -102.2080 109° East 452 520 33,000  Level FlightAware ADS-B
Tue 07:43:30 PM 39.1449 -102.1310 110° East 455 524 33,000  Level FlightAware ADS-B
Tue 07:44:00 PM 39.1235 -102.0540 110° East 458 527 33,000  Level FlightAware ADS-B
Tue 07:44:31 PM 39.1016 -101.9760 110° East 459 528 33,000  Level FlightAware ADS-B
Tue 07:45:01 PM 39.0794 -101.8980 110° East 458 527 33,000  Level FlightAware ADS-B
Tue 07:45:32 PM 39.0567 -101.8190 110° East 458 527 33,000  Level FlightAware ADS-B
Tue 07:46:03 PM 39.0335 -101.7390 110° East 459 528 33,000  Level FlightAware ADS-B
Tue 07:46:20 PM 39.0242 -101.7069 110° East 459 528 33,000  Level Kansas City Center
Tue 07:46:46 PM 39.0100 -101.6575 110° East 460 529 33,000  Level Denver Center
Tue 07:47:48 PM 38.9592 -101.4839 111° Southeast 464 534 33,000  Level Denver Center
Tue 07:48:50 PM 38.9144 -101.3336 111° Southeast 469 540 33,000  Level Denver Center
Tue 07:49:52 PM 38.8611 -101.1589 111° Southeast 471 542 33,000  Level Denver Center
Tue 07:50:54 PM 38.8153 -101.0072 111° Southeast 476 548 33,000  Level Denver Center
Tue 07:51:56 PM 38.7608 -100.8311 112° Southeast 473 544 33,000  Level Denver Center
Tue 07:52:58 PM 38.7133 -100.6811 112° Southeast 474 545 33,000  Level Denver Center
Tue 07:54:00 PM 38.6592 -100.5042 111° Southeast 476 548 33,000  Level Denver Center
Tue 07:55:02 PM 38.6114 -100.3519 112° Southeast 479 551 33,000  Level Denver Center
Tue 07:56:05 PM 38.5550 -100.1744 112° Southeast 481 554 33,000  Level Denver Center
Tue 07:57:07 PM 38.5069 -100.0231 112° Southeast 481 554 33,000  Level Denver Center
Tue 07:58:09 PM 38.4597 -99.8706 112° Southeast 481 554 33,000 -442 Level Denver Center
Tue 07:58:42 PM 38.4297 -99.7681 110° East 478 550 32,300 -1,705 Descending Kansas City Center
Tue 07:59:44 PM 38.3831 -99.6164 111° Southeast 478 550 30,300 -2,146 Descending Kansas City Center
Tue 08:00:45 PM 38.3392 -99.4686 111° Southeast 477 549 27,900 -2,311 Descending Kansas City Center
Tue 08:01:46 PM 38.2906 -99.3161 112° Southeast 468 539 25,600 -2,016 Descending Kansas City Center
Tue 08:02:47 PM 38.2386 -99.1489 112° Southeast 431 496 23,800 -1,728 Descending Kansas City Center
Tue 08:03:51 PM 38.2003 -99.0217 111° Southeast 396 456 22,000 -1,935 Descending Kansas City Center
Tue 08:04:51 PM 38.1617 -98.8936 111° Southeast 388 447 19,800 -1,884 Descending Kansas City Center
Tue 08:05:52 PM 38.1231 -98.7658 111° Southeast 389 448 18,200 -1,344 Descending Kansas City Center
Tue 08:06:56 PM 38.0839 -98.6439 112° Southeast 377 434 17,000 -1,210 Descending Kansas City Center
Tue 08:07:56 PM 38.0469 -98.5253 112° Southeast 366 421 15,700 -1,455 Descending Kansas City Center
Tue 08:08:35 PM 38.0181 -98.4364 112° Southeast 349 402 14,600 -1,238 Descending Kansas City Center
Tue 08:08:59 PM 38.0111 -98.4106 109° East 354 407 14,400 -1,256 Descending Kansas City Center
Tue 08:09:18 PM 37.9919 -98.3578 115° Southeast 343 395 13,700 -1,388 Descending Kansas City Center
Tue 08:15:02 PM 37.6950 -97.9360 115° Southeast 231 266 6,000 -1,411 Descending FlightAware ADS-B
Tue 08:16:02 PM 37.6770 -97.8990 122° Southeast 238 274 4,200 -1,271 Descending FlightAware ADS-B
Tue 08:16:27 PM 37.6640 -97.8720 121° Southeast 238 274 4,200 -933 Level FlightAware ADS-B
Tue 08:17:32 PM 37.6770 -97.8990 301° West 234 269 2,800 -933 Descending FlightAware ADS-B
Tue 08:17:57 PM 37.6720 -97.8680 102° East 234 269 2,800  Level FlightAware ADS-B
Tue 08:18:22 PM 37.6250 -97.6750 107° East 242 278 2,800  Level FlightAware ADS-B
Tue 08:18:47 PM 37.6200 -97.6430 101° East 242 278 2,800  Level FlightAware ADS-B
Tue 08:19:12 PM 37.6140 -97.6060 102° East 241 277 2,800  Level FlightAware ADS-B
Tue 08:19:42 PM 37.6040 -97.5660 108° East 232 267 2,800  Level FlightAware ADS-B
Tue 08:20:12 PM 37.5920 -97.5310 113° Southeast 213 245 2,800 -100 Level FlightAware ADS-B
Tue 08:20:42 PM 37.5830 -97.5000 110° East 189 217 2,700 -462 Descending FlightAware ADS-B
Tue 08:21:17 PM 37.5900 -97.4690 74° East 145 167 2,300 -873 Descending FlightAware ADS-B
Tue 08:21:37 PM 37.6020 -97.4610 28° Northeast 135 155 1,900 -1,067 Descending FlightAware ADS-B
Tue 08:22:02 PM 37.6150 -97.4550 20° North 132 152 1,500 -764 Descending FlightAware ADS-B
Tue 08:22:32 PM 37.6320 -97.4470 20° North 142 163 1,200 -327 Descending FlightAware ADS-B
Tue 08:22:57 PM 37.6460 -97.4410 19° North 142 163 1,200  Level FlightAware ADS-B

Login

Don't have an account? Register now (free) for customized features, flight alerts, and more!